sensor_id;sensor_type;location;lat;lon;timestamp;P1;durP1;ratioP1;P2;durP2;ratioP2
44098;SDS011;29762;50.086;14.364;2023-03-23T00:05:34;1.63;;;1.15;;
44098;SDS011;29762;50.086;14.364;2023-03-23T00:10:55;1.35;;;1.08;;
44098;SDS011;29762;50.086;14.364;2023-03-23T00:16:20;1.65;;;1.00;;
44098;SDS011;29762;50.086;14.364;2023-03-23T00:21:49;1.50;;;1.20;;
44098;SDS011;29762;50.086;14.364;2023-03-23T00:27:12;1.77;;;1.15;;
44098;SDS011;29762;50.086;14.364;2023-03-23T00:32:35;1.40;;;1.02;;
44098;SDS011;29762;50.086;14.364;2023-03-23T00:37:54;1.38;;;1.20;;
44098;SDS011;29762;50.086;14.364;2023-03-23T00:43:15;2.28;;;1.40;;
44098;SDS011;29762;50.086;14.364;2023-03-23T00:48:36;1.27;;;0.90;;
44098;SDS011;29762;50.086;14.364;2023-03-23T00:54:03;1.20;;;1.00;;
44098;SDS011;29762;50.086;14.364;2023-03-23T00:59:22;1.30;;;1.13;;
44098;SDS011;29762;50.086;14.364;2023-03-23T01:04:43;1.10;;;1.00;;
44098;SDS011;29762;50.086;14.364;2023-03-23T01:10:11;1.45;;;1.10;;
44098;SDS011;29762;50.086;14.364;2023-03-23T01:15:35;1.40;;;1.17;;
44098;SDS011;29762;50.086;14.364;2023-03-23T01:20:54;1.85;;;1.20;;
44098;SDS011;29762;50.086;14.364;2023-03-23T01:26:15;1.60;;;1.10;;
44098;SDS011;29762;50.086;14.364;2023-03-23T01:31:41;1.42;;;1.17;;
44098;SDS011;29762;50.086;14.364;2023-03-23T01:37:02;1.30;;;1.00;;
44098;SDS011;29762;50.086;14.364;2023-03-23T01:42:26;1.48;;;0.90;;
44098;SDS011;29762;50.086;14.364;2023-03-23T01:47:53;1.40;;;1.00;;
44098;SDS011;29762;50.086;14.364;2023-03-23T01:53:16;0.90;;;0.90;;
44098;SDS011;29762;50.086;14.364;2023-03-23T01:58:37;1.20;;;1.00;;
44098;SDS011;29762;50.086;14.364;2023-03-23T02:03:57;1.40;;;1.02;;
44098;SDS011;29762;50.086;14.364;2023-03-23T02:09:18;1.20;;;1.10;;
44098;SDS011;29762;50.086;14.364;2023-03-23T02:14:39;1.00;;;0.75;;
44098;SDS011;29762;50.086;14.364;2023-03-23T02:31:26;1.17;;;1.08;;
44098;SDS011;29762;50.086;14.364;2023-03-23T02:36:53;1.30;;;1.20;;
44098;SDS011;29762;50.086;14.364;2023-03-23T02:42:22;0.90;;;0.88;;
44098;SDS011;29762;50.086;14.364;2023-03-23T02:47:45;1.40;;;0.80;;
44098;SDS011;29762;50.086;14.364;2023-03-23T02:53:09;0.70;;;0.70;;
44098;SDS011;29762;50.086;14.364;2023-03-23T02:58:30;0.82;;;0.80;;
44098;SDS011;29762;50.086;14.364;2023-03-23T03:03:52;0.80;;;0.80;;
44098;SDS011;29762;50.086;14.364;2023-03-23T03:09:14;1.10;;;0.85;;
44098;SDS011;29762;50.086;14.364;2023-03-23T03:14:41;1.13;;;1.02;;
44098;SDS011;29762;50.086;14.364;2023-03-23T03:20:06;1.30;;;1.00;;
44098;SDS011;29762;50.086;14.364;2023-03-23T03:25:32;1.05;;;0.90;;
44098;SDS011;29762;50.086;14.364;2023-03-23T03:30:56;1.00;;;0.82;;
44098;SDS011;29762;50.086;14.364;2023-03-23T03:36:29;0.93;;;0.85;;
44098;SDS011;29762;50.086;14.364;2023-03-23T03:41:56;1.10;;;1.00;;
44098;SDS011;29762;50.086;14.364;2023-03-23T03:47:16;1.00;;;0.90;;
44098;SDS011;29762;50.086;14.364;2023-03-23T03:52:35;1.00;;;0.90;;
44098;SDS011;29762;50.086;14.364;2023-03-23T03:57:55;1.00;;;0.90;;
44098;SDS011;29762;50.086;14.364;2023-03-23T04:03:36;1.38;;;0.90;;
44098;SDS011;29762;50.086;14.364;2023-03-23T04:09:19;1.17;;;0.90;;
44098;SDS011;29762;50.086;14.364;2023-03-23T04:14:40;0.88;;;0.80;;
44098;SDS011;29762;50.086;14.364;2023-03-23T04:20:01;1.95;;;0.90;;
44098;SDS011;29762;50.086;14.364;2023-03-23T04:25:31;0.82;;;0.80;;
44098;SDS011;29762;50.086;14.364;2023-03-23T04:30:52;1.00;;;0.90;;
44098;SDS011;29762;50.086;14.364;2023-03-23T04:36:12;0.90;;;0.90;;
44098;SDS011;29762;50.086;14.364;2023-03-23T04:41:43;0.82;;;0.82;;
44098;SDS011;29762;50.086;14.364;2023-03-23T04:47:37;0.80;;;0.80;;
44098;SDS011;29762;50.086;14.364;2023-03-23T04:53:03;0.80;;;0.80;;
44098;SDS011;29762;50.086;14.364;2023-03-23T04:58:24;0.82;;;0.82;;
44098;SDS011;29762;50.086;14.364;2023-03-23T05:03:59;0.93;;;0.82;;
44098;SDS011;29762;50.086;14.364;2023-03-23T05:09:20;0.80;;;0.75;;
44098;SDS011;29762;50.086;14.364;2023-03-23T05:14:41;1.20;;;1.10;;
44098;SDS011;29762;50.086;14.364;2023-03-23T05:20:10;1.02;;;0.80;;
44098;SDS011;29762;50.086;14.364;2023-03-23T05:25:35;0.93;;;0.85;;
44098;SDS011;29762;50.086;14.364;2023-03-23T05:31:03;1.67;;;0.90;;
44098;SDS011;29762;50.086;14.364;2023-03-23T05:36:25;1.05;;;0.98;;
44098;SDS011;29762;50.086;14.364;2023-03-23T05:42:00;4.13;;;3.08;;
44098;SDS011;29762;50.086;14.364;2023-03-23T05:47:32;4.60;;;3.80;;
44098;SDS011;29762;50.086;14.364;2023-03-23T05:52:57;4.47;;;2.97;;
44098;SDS011;29762;50.086;14.364;2023-03-23T05:58:18;2.30;;;2.10;;
44098;SDS011;29762;50.086;14.364;2023-03-23T06:03:40;4.30;;;2.30;;
44098;SDS011;29762;50.086;14.364;2023-03-23T06:09:09;3.65;;;2.45;;
44098;SDS011;29762;50.086;14.364;2023-03-23T06:14:48;15.25;;;4.05;;
44098;SDS011;29762;50.086;14.364;2023-03-23T06:20:11;5.50;;;2.83;;
44098;SDS011;29762;50.086;14.364;2023-03-23T06:25:33;7.85;;;3.33;;
44098;SDS011;29762;50.086;14.364;2023-03-23T06:30:54;9.77;;;4.20;;
44098;SDS011;29762;50.086;14.364;2023-03-23T06:36:14;10.13;;;4.22;;
44098;SDS011;29762;50.086;14.364;2023-03-23T06:42:00;11.23;;;4.55;;
44098;SDS011;29762;50.086;14.364;2023-03-23T06:47:23;12.40;;;4.65;;
44098;SDS011;29762;50.086;14.364;2023-03-23T06:52:47;15.27;;;4.70;;
44098;SDS011;29762;50.086;14.364;2023-03-23T06:58:09;11.80;;;4.93;;
44098;SDS011;29762;50.086;14.364;2023-03-23T07:03:29;13.30;;;4.93;;
44098;SDS011;29762;50.086;14.364;2023-03-23T07:08:51;14.13;;;5.22;;
44098;SDS011;29762;50.086;14.364;2023-03-23T07:14:15;17.42;;;5.75;;
44098;SDS011;29762;50.086;14.364;2023-03-23T07:19:35;13.98;;;4.95;;
44098;SDS011;29762;50.086;14.364;2023-03-23T07:24:55;12.52;;;5.07;;
44098;SDS011;29762;50.086;14.364;2023-03-23T07:30:20;12.60;;;5.05;;
44098;SDS011;29762;50.086;14.364;2023-03-23T07:35:40;13.23;;;5.25;;
44098;SDS011;29762;50.086;14.364;2023-03-23T07:41:03;12.40;;;5.45;;
44098;SDS011;29762;50.086;14.364;2023-03-23T07:46:24;12.95;;;5.03;;
44098;SDS011;29762;50.086;14.364;2023-03-23T07:52:00;12.68;;;5.30;;
44098;SDS011;29762;50.086;14.364;2023-03-23T07:57:20;12.20;;;5.03;;
44098;SDS011;29762;50.086;14.364;2023-03-23T08:02:48;12.75;;;4.93;;
44098;SDS011;29762;50.086;14.364;2023-03-23T08:08:26;9.43;;;4.40;;
44098;SDS011;29762;50.086;14.364;2023-03-23T08:14:20;11.52;;;4.88;;
44098;SDS011;29762;50.086;14.364;2023-03-23T08:19:55;9.50;;;4.78;;
44098;SDS011;29762;50.086;14.364;2023-03-23T08:25:49;16.17;;;4.78;;
44098;SDS011;29762;50.086;14.364;2023-03-23T08:31:12;9.70;;;4.57;;
44098;SDS011;29762;50.086;14.364;2023-03-23T08:36:56;9.70;;;4.43;;
44098;SDS011;29762;50.086;14.364;2023-03-23T08:42:37;12.68;;;4.68;;
44098;SDS011;29762;50.086;14.364;2023-03-23T08:48:23;10.13;;;4.78;;
44098;SDS011;29762;50.086;14.364;2023-03-23T08:54:03;9.88;;;4.32;;
44098;SDS011;29762;50.086;14.364;2023-03-23T08:59:41;10.38;;;4.30;;
44098;SDS011;29762;50.086;14.364;2023-03-23T09:05:26;8.73;;;3.97;;
44098;SDS011;29762;50.086;14.364;2023-03-23T09:11:05;8.38;;;4.18;;
44098;SDS011;29762;50.086;14.364;2023-03-23T09:16:26;9.82;;;4.25;;
44098;SDS011;29762;50.086;14.364;2023-03-23T09:21:45;10.27;;;4.43;;
44098;SDS011;29762;50.086;14.364;2023-03-23T09:27:05;7.90;;;3.88;;
44098;SDS011;29762;50.086;14.364;2023-03-23T09:32:25;9.85;;;4.40;;
44098;SDS011;29762;50.086;14.364;2023-03-23T09:37:45;7.18;;;3.47;;
44098;SDS011;29762;50.086;14.364;2023-03-23T09:54:28;7.57;;;3.88;;
44098;SDS011;29762;50.086;14.364;2023-03-23T10:16:12;8.30;;;3.97;;
44098;SDS011;29762;50.086;14.364;2023-03-23T10:21:36;7.88;;;3.38;;
44098;SDS011;29762;50.086;14.364;2023-03-23T10:32:36;5.78;;;3.17;;
44098;SDS011;29762;50.086;14.364;2023-03-23T10:38:02;5.05;;;2.90;;
44098;SDS011;29762;50.086;14.364;2023-03-23T10:43:25;6.30;;;3.25;;
44098;SDS011;29762;50.086;14.364;2023-03-23T10:48:45;6.05;;;3.10;;
44098;SDS011;29762;50.086;14.364;2023-03-23T10:54:08;7.88;;;3.58;;
44098;SDS011;29762;50.086;14.364;2023-03-23T10:59:29;6.20;;;2.90;;
44098;SDS011;29762;50.086;14.364;2023-03-23T11:05:00;6.43;;;3.30;;
44098;SDS011;29762;50.086;14.364;2023-03-23T11:10:23;5.07;;;2.85;;
44098;SDS011;29762;50.086;14.364;2023-03-23T11:16:03;4.63;;;2.60;;
44098;SDS011;29762;50.086;14.364;2023-03-23T11:21:24;4.82;;;2.83;;
44098;SDS011;29762;50.086;14.364;2023-03-23T11:26:45;5.10;;;2.45;;
44098;SDS011;29762;50.086;14.364;2023-03-23T11:32:09;4.63;;;2.78;;
44098;SDS011;29762;50.086;14.364;2023-03-23T11:43:12;6.10;;;2.80;;
44098;SDS011;29762;50.086;14.364;2023-03-23T11:48:38;4.38;;;2.60;;
44098;SDS011;29762;50.086;14.364;2023-03-23T11:59:40;4.50;;;2.65;;
44098;SDS011;29762;50.086;14.364;2023-03-23T12:10:57;3.72;;;2.45;;
44098;SDS011;29762;50.086;14.364;2023-03-23T12:16:30;4.05;;;2.20;;
44098;SDS011;29762;50.086;14.364;2023-03-23T12:22:00;3.30;;;2.20;;
44098;SDS011;29762;50.086;14.364;2023-03-23T12:27:34;3.80;;;2.25;;
44098;SDS011;29762;50.086;14.364;2023-03-23T12:39:25;3.28;;;2.45;;
44098;SDS011;29762;50.086;14.364;2023-03-23T12:44:47;3.50;;;2.22;;
44098;SDS011;29762;50.086;14.364;2023-03-23T12:55:45;3.70;;;2.38;;
44098;SDS011;29762;50.086;14.364;2023-03-23T13:06:51;3.65;;;2.30;;
44098;SDS011;29762;50.086;14.364;2023-03-23T13:12:11;4.60;;;2.00;;
44098;SDS011;29762;50.086;14.364;2023-03-23T13:17:50;2.88;;;1.90;;
44098;SDS011;29762;50.086;14.364;2023-03-23T13:28:57;3.08;;;2.20;;
44098;SDS011;29762;50.086;14.364;2023-03-23T13:34:19;4.22;;;2.40;;
44098;SDS011;29762;50.086;14.364;2023-03-23T13:40:28;2.70;;;2.08;;
44098;SDS011;29762;50.086;14.364;2023-03-23T13:56:16;2.50;;;1.88;;
44098;SDS011;29762;50.086;14.364;2023-03-23T14:01:39;3.90;;;2.10;;
44098;SDS011;29762;50.086;14.364;2023-03-23T14:07:08;2.22;;;1.75;;
44098;SDS011;29762;50.086;14.364;2023-03-23T14:12:29;3.42;;;2.08;;
44098;SDS011;29762;50.086;14.364;2023-03-23T14:17:49;2.97;;;1.98;;
44098;SDS011;29762;50.086;14.364;2023-03-23T14:23:17;2.78;;;1.80;;
44098;SDS011;29762;50.086;14.364;2023-03-23T14:28:38;1.90;;;1.60;;
44098;SDS011;29762;50.086;14.364;2023-03-23T14:34:01;3.17;;;1.95;;
44098;SDS011;29762;50.086;14.364;2023-03-23T14:39:24;2.30;;;1.75;;
44098;SDS011;29762;50.086;14.364;2023-03-23T14:44:46;3.40;;;1.80;;
44098;SDS011;29762;50.086;14.364;2023-03-23T14:50:21;3.25;;;1.98;;
44098;SDS011;29762;50.086;14.364;2023-03-23T14:55:59;2.65;;;1.98;;
44098;SDS011;29762;50.086;14.364;2023-03-23T15:01:25;2.42;;;1.75;;
44098;SDS011;29762;50.086;14.364;2023-03-23T15:07:05;2.50;;;1.60;;
44098;SDS011;29762;50.086;14.364;2023-03-23T15:12:26;2.60;;;1.80;;
44098;SDS011;29762;50.086;14.364;2023-03-23T15:17:48;2.45;;;1.85;;
44098;SDS011;29762;50.086;14.364;2023-03-23T15:23:07;2.70;;;1.88;;
44098;SDS011;29762;50.086;14.364;2023-03-23T15:28:28;2.75;;;1.80;;
44098;SDS011;29762;50.086;14.364;2023-03-23T15:33:54;2.83;;;1.80;;
44098;SDS011;29762;50.086;14.364;2023-03-23T15:39:16;1.80;;;1.60;;
44098;SDS011;29762;50.086;14.364;2023-03-23T15:44:36;2.15;;;1.58;;
44098;SDS011;29762;50.086;14.364;2023-03-23T15:50:16;2.33;;;1.85;;
44098;SDS011;29762;50.086;14.364;2023-03-23T15:55:50;1.70;;;1.60;;
44098;SDS011;29762;50.086;14.364;2023-03-23T16:01:15;2.90;;;1.55;;
44098;SDS011;29762;50.086;14.364;2023-03-23T16:06:35;2.30;;;1.65;;
44098;SDS011;29762;50.086;14.364;2023-03-23T16:11:56;1.88;;;1.52;;
44098;SDS011;29762;50.086;14.364;2023-03-23T16:17:17;2.25;;;1.40;;
44098;SDS011;29762;50.086;14.364;2023-03-23T16:22:37;3.05;;;1.65;;
44098;SDS011;29762;50.086;14.364;2023-03-23T16:27:57;1.60;;;1.30;;
44098;SDS011;29762;50.086;14.364;2023-03-23T16:33:16;2.38;;;1.55;;
44098;SDS011;29762;50.086;14.364;2023-03-23T16:38:37;2.65;;;1.50;;
44098;SDS011;29762;50.086;14.364;2023-03-23T16:43:57;2.40;;;1.42;;
44098;SDS011;29762;50.086;14.364;2023-03-23T16:49:17;4.15;;;1.10;;
44098;SDS011;29762;50.086;14.364;2023-03-23T16:54:36;1.40;;;1.30;;
44098;SDS011;29762;50.086;14.364;2023-03-23T16:59:55;2.15;;;0.95;;
44098;SDS011;29762;50.086;14.364;2023-03-23T17:05:17;0.80;;;0.80;;
44098;SDS011;29762;50.086;14.364;2023-03-23T17:10:41;1.90;;;1.10;;
44098;SDS011;29762;50.086;14.364;2023-03-23T17:16:01;1.38;;;1.17;;
44098;SDS011;29762;50.086;14.364;2023-03-23T17:21:21;1.30;;;1.10;;
44098;SDS011;29762;50.086;14.364;2023-03-23T17:26:43;4.32;;;1.15;;
44098;SDS011;29762;50.086;14.364;2023-03-23T17:32:03;3.35;;;1.30;;
44098;SDS011;29762;50.086;14.364;2023-03-23T17:37:23;1.52;;;1.10;;
44098;SDS011;29762;50.086;14.364;2023-03-23T17:42:42;1.50;;;1.10;;
44098;SDS011;29762;50.086;14.364;2023-03-23T17:48:01;2.03;;;1.20;;
44098;SDS011;29762;50.086;14.364;2023-03-23T17:53:25;10.13;;;2.10;;
44098;SDS011;29762;50.086;14.364;2023-03-23T17:58:45;6.32;;;2.10;;
44098;SDS011;29762;50.086;14.364;2023-03-23T18:04:05;4.65;;;2.20;;
44098;SDS011;29762;50.086;14.364;2023-03-23T18:09:26;4.68;;;1.63;;
44098;SDS011;29762;50.086;14.364;2023-03-23T18:14:46;5.80;;;2.00;;
44098;SDS011;29762;50.086;14.364;2023-03-23T18:20:07;5.63;;;2.10;;
44098;SDS011;29762;50.086;14.364;2023-03-23T18:25:27;5.35;;;2.22;;
44098;SDS011;29762;50.086;14.364;2023-03-23T18:30:47;3.03;;;1.70;;
44098;SDS011;29762;50.086;14.364;2023-03-23T18:36:07;4.07;;;1.90;;
44098;SDS011;29762;50.086;14.364;2023-03-23T18:41:28;4.15;;;1.80;;
44098;SDS011;29762;50.086;14.364;2023-03-23T18:46:47;3.45;;;1.88;;
44098;SDS011;29762;50.086;14.364;2023-03-23T18:52:06;3.08;;;1.67;;
44098;SDS011;29762;50.086;14.364;2023-03-23T18:57:26;3.60;;;1.67;;
44098;SDS011;29762;50.086;14.364;2023-03-23T19:02:45;2.42;;;1.80;;
44098;SDS011;29762;50.086;14.364;2023-03-23T19:08:06;3.50;;;1.83;;
44098;SDS011;29762;50.086;14.364;2023-03-23T19:13:28;3.17;;;1.90;;
44098;SDS011;29762;50.086;14.364;2023-03-23T19:18:48;2.88;;;1.60;;
44098;SDS011;29762;50.086;14.364;2023-03-23T19:24:08;2.05;;;1.83;;
44098;SDS011;29762;50.086;14.364;2023-03-23T19:29:27;2.05;;;1.67;;
44098;SDS011;29762;50.086;14.364;2023-03-23T19:34:47;2.78;;;1.95;;
44098;SDS011;29762;50.086;14.364;2023-03-23T19:40:07;2.67;;;1.83;;
44098;SDS011;29762;50.086;14.364;2023-03-23T19:45:27;2.22;;;1.90;;
44098;SDS011;29762;50.086;14.364;2023-03-23T19:50:48;2.33;;;2.00;;
44098;SDS011;29762;50.086;14.364;2023-03-23T19:56:15;3.58;;;1.80;;
44098;SDS011;29762;50.086;14.364;2023-03-23T20:01:37;3.58;;;1.70;;
44098;SDS011;29762;50.086;14.364;2023-03-23T20:06:57;2.63;;;1.48;;
44098;SDS011;29762;50.086;14.364;2023-03-23T20:12:17;2.65;;;1.63;;
44098;SDS011;29762;50.086;14.364;2023-03-23T20:17:37;2.72;;;1.92;;
44098;SDS011;29762;50.086;14.364;2023-03-23T20:22:56;2.20;;;1.63;;
44098;SDS011;29762;50.086;14.364;2023-03-23T20:28:16;3.08;;;1.70;;
44098;SDS011;29762;50.086;14.364;2023-03-23T20:33:35;2.65;;;1.52;;
44098;SDS011;29762;50.086;14.364;2023-03-23T20:38:55;1.30;;;1.20;;
44098;SDS011;29762;50.086;14.364;2023-03-23T20:44:19;2.92;;;1.88;;
44098;SDS011;29762;50.086;14.364;2023-03-23T20:49:41;3.65;;;1.95;;
44098;SDS011;29762;50.086;14.364;2023-03-23T20:55:00;2.00;;;1.80;;
44098;SDS011;29762;50.086;14.364;2023-03-23T21:00:20;4.82;;;2.10;;
44098;SDS011;29762;50.086;14.364;2023-03-23T21:05:41;6.15;;;2.00;;
44098;SDS011;29762;50.086;14.364;2023-03-23T21:11:02;3.42;;;2.10;;
44098;SDS011;29762;50.086;14.364;2023-03-23T21:16:23;2.75;;;1.85;;
44098;SDS011;29762;50.086;14.364;2023-03-23T21:21:42;3.90;;;1.90;;
44098;SDS011;29762;50.086;14.364;2023-03-23T21:27:02;5.70;;;2.22;;
44098;SDS011;29762;50.086;14.364;2023-03-23T21:32:22;4.00;;;2.30;;
44098;SDS011;29762;50.086;14.364;2023-03-23T21:37:41;4.35;;;2.30;;
44098;SDS011;29762;50.086;14.364;2023-03-23T21:43:01;4.78;;;2.60;;
44098;SDS011;29762;50.086;14.364;2023-03-23T21:48:21;5.88;;;2.65;;
44098;SDS011;29762;50.086;14.364;2023-03-23T21:53:41;6.53;;;2.63;;
44098;SDS011;29762;50.086;14.364;2023-03-23T21:59:02;7.18;;;2.78;;
44098;SDS011;29762;50.086;14.364;2023-03-23T22:04:22;9.23;;;3.20;;
44098;SDS011;29762;50.086;14.364;2023-03-23T22:09:42;11.15;;;2.95;;
44098;SDS011;29762;50.086;14.364;2023-03-23T22:15:07;10.00;;;3.22;;
44098;SDS011;29762;50.086;14.364;2023-03-23T22:20:28;6.10;;;2.85;;
44098;SDS011;29762;50.086;14.364;2023-03-23T22:25:49;8.55;;;3.42;;
44098;SDS011;29762;50.086;14.364;2023-03-23T22:31:12;8.30;;;3.45;;
44098;SDS011;29762;50.086;14.364;2023-03-23T22:36:37;9.35;;;3.50;;
44098;SDS011;29762;50.086;14.364;2023-03-23T22:41:57;7.28;;;3.30;;
44098;SDS011;29762;50.086;14.364;2023-03-23T22:47:16;7.65;;;3.15;;
44098;SDS011;29762;50.086;14.364;2023-03-23T22:52:36;10.45;;;3.38;;
44098;SDS011;29762;50.086;14.364;2023-03-23T22:57:56;7.20;;;3.00;;
44098;SDS011;29762;50.086;14.364;2023-03-23T23:03:15;6.25;;;2.92;;
44098;SDS011;29762;50.086;14.364;2023-03-23T23:08:35;7.90;;;3.35;;
44098;SDS011;29762;50.086;14.364;2023-03-23T23:13:55;7.00;;;3.47;;
44098;SDS011;29762;50.086;14.364;2023-03-23T23:19:15;5.40;;;2.83;;
44098;SDS011;29762;50.086;14.364;2023-03-23T23:24:34;8.55;;;3.22;;
44098;SDS011;29762;50.086;14.364;2023-03-23T23:29:54;5.50;;;2.80;;
44098;SDS011;29762;50.086;14.364;2023-03-23T23:35:14;6.72;;;2.70;;
44098;SDS011;29762;50.086;14.364;2023-03-23T23:40:34;5.78;;;2.72;;
44098;SDS011;29762;50.086;14.364;2023-03-23T23:45:53;6.30;;;2.60;;
44098;SDS011;29762;50.086;14.364;2023-03-23T23:51:13;5.93;;;2.50;;
44098;SDS011;29762;50.086;14.364;2023-03-23T23:56:34;5.90;;;2.50;;
